EDT,Max TemperatureF,Mean TemperatureF,Min TemperatureF,Max Dew PointF,MeanDew PointF,Min DewpointF,Max Humidity, Mean Humidity, Min Humidity, Max Sea Level PressureIn, Mean Sea Level PressureIn, Min Sea Level PressureIn, Max VisibilityMiles, Mean VisibilityMiles, Min VisibilityMiles, Max Wind SpeedMPH, Mean Wind SpeedMPH, Max Gust SpeedMPH,PrecipitationIn, CloudCover, Events, WindDirDegrees
2012-10-1,72,68,65,70,61,55,94,77,58,29.94,29.91,29.88,10,10,10,9,2,,0.00,5,Rain,78
2012-10-2,76,74,72,75,73,70,95,94,91,30.00,29.92,29.88,10,8,3,9,5,,0.09,1,Rain,169
2012-10-3,83,78,73,76,73,71,97,90,69,30.15,30.09,30.00,10,9,1,9,4,,0.02,1,Rain,212
2012-10-4,81,76,72,73,68,60,96,80,50,30.20,30.14,30.10,10,10,7,12,5,17,0.01,0,,259
2012-10-5,76,71,66,67,63,58,92,77,58,30.12,30.08,30.03,10,10,10,8,3,,0.01,0,,338
2012-10-6,81,74,66,67,62,57,90,70,44,30.02,29.94,29.87,10,10,10,9,3,,0.01,0,,230
2012-10-7,72,64,56,65,61,55,94,81,64,30.09,29.99,29.95,10,10,5,14,7,21,0.02,4,Rain,9
2012-10-8,64,61,58,62,57,52,94,85,73,30.19,30.11,30.02,10,9,3,13,9,28,0.04,8,Rain,28
2012-10-9,68,64,61,66,63,60,97,94,90,30.05,30.02,29.99,10,6,2,10,7,20,0.02,7,Rain,348
2012-10-10,65,62,59,61,56,51,97,82,61,30.04,29.99,29.94,10,9,2,12,5,16,0.01,5,,271
2012-10-11,63,58,53,57,47,43,81,62,50,30.27,30.19,30.04,10,10,10,12,6,24,0.00,0,,3
2012-10-12,67,60,53,52,47,43,78,62,48,30.33,30.20,30.14,10,10,10,14,3,23,0.00,0,,336
2012-10-13,64,60,56,54,45,40,78,57,46,30.44,30.38,30.33,10,10,10,12,8,22,0.00,0,,53
2012-10-14,75,66,58,60,57,53,95,72,48,30.33,30.20,30.07,10,10,7,9,2,,0.00,0,,135
2012-10-15,77,70,63,66,62,59,94,78,54,30.06,29.85,29.69,10,10,3,12,3,17,0.09,1,Rain,216
2012-10-16,65,60,56,63,48,44,94,65,51,29.92,29.85,29.72,10,10,10,13,8,28,0.04,1,,348
2012-10-17,65,60,54,54,49,45,87,69,55,30.02,29.97,29.92,10,10,10,6,0,,0.00,0,,110
2012-10-18,76,67,58,67,59,48,91,73,52,29.99,29.91,29.83,10,10,4,9,4,,0.00,2,Rain,118
2012-10-19,75,71,67,68,67,65,96,88,71,29.81,29.76,29.70,10,9,5,9,2,,0.01,1,Rain,198
2012-10-20,75,67,59,64,49,37,92,56,25,29.89,29.80,29.76,10,10,10,10,5,,0.00,0,,252
2012-10-21,64,60,55,52,45,41,74,56,47,30.13,30.03,29.89,10,10,10,13,5,21,0.00,0,,360
2012-10-22,66,60,55,50,46,38,77,62,36,30.20,30.16,30.12,10,10,10,9,2,,0.00,0,,340
2012-10-23,72,64,56,58,52,44,87,69,37,30.19,30.15,30.11,10,10,10,7,3,,0.00,0,,213
2012-10-24,75,67,59,63,57,52,93,74,45,30.18,30.13,30.09,10,10,10,8,5,,0.00,0,,239
2012-10-25,72,66,61,64,62,60,97,87,64,30.17,30.13,30.10,10,8,1,6,2,,0.00,1,,6
2012-10-26,69,67,65,66,65,63,97,94,83,30.10,30.00,29.90,10,6,0,12,5,18,0.01,2,Fog-Rain,47
2012-10-27,68,66,63,64,63,62,96,91,85,29.88,29.70,29.55,10,5,2,20,12,34,0.01,4,Rain,38
2012-10-28,63,60,58,62,60,57,97,96,94,29.52,29.37,29.24,4,3,1,28,22,48,0.00,8,Rain,356
2012-10-29,60,52,45,59,51,39,97,92,78,29.24,29.18,29.12,10,6,3,28,19,44,0.01,8,Rain,293
2012-10-30,52,48,43,41,37,35,91,68,55,29.58,29.43,29.23,10,10,4,21,15,33,0.00,5,,239
2012-10-31,56,50,45,40,37,34,70,60,47,29.72,29.65,29.58,10,10,10,14,9,22,0.00,1,,248